Time;durP1;ratioP1;P1;durP2;ratioP2;P2;SDS_P1;SDS_P2;PMS_P1;PMS_P2;Temp;Humidity;BMP_temperature;BMP_pressure;BME280_temperature;BME280_humidity;BME280_pressure;Samples;Min_cycle;Max_cycle;Signal;HPM_P1;HPM_P2
2022/07/10 00:09:14;;;;;;;5.83;4.63;;;18.20;94.50;;;;;;21082906;28;20210;-72
2022/07/10 00:19:16;;;;;;;5.30;4.20;;;18.10;94.40;;;;;;21082074;28;20235;-70
2022/07/10 00:29:18;;;;;;;5.17;4.50;;;18.00;94.60;;;;;;21063262;28;20607;-73
2022/07/10 00:39:20;;;;;;;4.53;4.07;;;17.90;94.90;;;;;;21105318;28;20702;-73
2022/07/10 00:49:22;;;;;;;5.77;3.93;;;17.80;95.10;;;;;;21082378;28;20234;-73
2022/07/10 00:59:25;;;;;;;4.80;3.90;;;17.80;95.20;;;;;;21079338;28;20589;-72
2022/07/10 01:09:29;;;;;;;4.97;4.23;;;17.70;95.20;;;;;;21079148;28;20205;-73
2022/07/10 01:19:31;;;;;;;5.50;3.67;;;17.70;95.20;;;;;;21105268;28;20234;-73
2022/07/10 01:29:32;;;;;;;4.33;3.70;;;17.70;95.00;;;;;;21105999;28;20211;-72
2022/07/10 01:39:34;;;;;;;5.80;3.20;;;17.60;94.90;;;;;;21105805;28;20609;-71
2022/07/10 01:49:37;;;;;;;4.43;3.00;;;17.60;94.60;;;;;;21104946;28;20241;-71
2022/07/10 01:59:39;;;;;;;5.60;3.17;;;17.60;94.40;;;;;;21104952;28;20251;-72
2022/07/10 02:32:26;;;;;;;4.97;3.10;;;17.50;93.70;;;;;;21090448;28;20650;-73
2022/07/10 02:42:28;;;;;;;5.63;2.87;;;17.40;93.70;;;;;;21089671;28;20238;-73
2022/07/10 02:52:30;;;;;;;2.57;2.37;;;17.20;93.70;;;;;;21088751;28;20201;-72
2022/07/10 03:02:32;;;;;;;3.43;2.40;;;17.10;93.50;;;;;;21087674;28;20232;-73
2022/07/10 03:12:34;;;;;;;4.17;2.77;;;17.10;93.30;;;;;;21087575;28;20542;-72
2022/07/10 03:22:36;;;;;;;8.77;2.10;;;17.00;93.20;;;;;;21086240;28;20233;-72
2022/07/10 03:32:38;;;;;;;6.97;2.63;;;16.80;92.70;;;;;;21085525;28;20673;-72
2022/07/10 03:42:39;;;;;;;4.43;1.50;;;16.70;92.20;;;;;;21084923;28;20245;-72
2022/07/10 03:52:41;;;;;;;3.13;1.60;;;16.60;90.60;;;;;;21083922;28;20212;-73
2022/07/10 04:02:43;;;;;;;3.47;1.80;;;16.50;90.00;;;;;;21076485;28;20237;-73
2022/07/10 04:12:45;;;;;;;5.17;2.13;;;16.60;89.30;;;;;;21059045;28;20599;-72
2022/07/10 04:22:47;;;;;;;5.13;2.10;;;16.70;88.70;;;;;;21082042;28;20237;-72
2022/07/10 04:32:48;;;;;;;3.63;1.93;;;16.60;88.40;;;;;;21055245;28;20215;-74
2022/07/10 04:42:50;;;;;;;5.43;1.80;;;16.60;88.50;;;;;;21038571;28;20239;-73
2022/07/10 04:52:52;;;;;;;5.80;2.17;;;16.60;88.40;;;;;;21078732;28;20654;-71
2022/07/10 05:02:54;;;;;;;2.83;1.60;;;16.80;87.80;;;;;;21078130;28;20233;-69
2022/07/10 05:12:55;;;;;;;6.57;1.80;;;16.80;86.80;;;;;;21078683;28;20240;-70
2022/07/10 05:22:57;;;;;;;3.93;2.07;;;16.90;86.70;;;;;;21078318;28;20271;-69
2022/07/10 05:33:00;;;;;;;3.80;1.70;;;17.10;85.20;;;;;;21081740;28;20256;-70
2022/07/10 05:43:02;;;;;;;7.60;3.07;;;17.10;83.90;;;;;;21102798;28;20244;-70
2022/07/10 05:53:03;;;;;;;6.87;1.93;;;17.20;81.90;;;;;;21077753;28;20220;-70
2022/07/10 06:03:05;;;;;;;3.53;1.70;;;17.20;79.60;;;;;;21087686;28;20230;-71
2022/07/10 06:13:07;;;;;;;2.47;1.20;;;17.30;78.80;;;;;;21092087;28;20573;-73
2022/07/10 06:23:10;;;;;;;4.73;1.37;;;17.30;77.70;;;;;;21091361;28;20622;-71
2022/07/10 06:33:11;;;;;;;4.10;1.97;;;17.10;76.60;;;;;;21090139;28;20210;-70
2022/07/10 06:43:13;;;;;;;2.93;1.23;;;17.20;75.80;;;;;;21089499;28;20635;-70
2022/07/10 06:53:15;;;;;;;6.70;1.63;;;17.60;75.20;;;;;;21031952;28;20206;-71
2022/07/10 07:03:17;;;;;;;3.67;1.20;;;17.60;73.40;;;;;;21002262;28;20227;-71
2022/07/10 07:13:19;;;;;;;4.03;1.20;;;17.40;72.80;;;;;;21000858;28;20206;-70
2022/07/10 07:23:22;;;;;;;3.70;1.33;;;17.70;72.20;;;;;;21002929;28;20238;-71
2022/07/10 07:33:24;;;;;;;4.07;1.10;;;17.70;69.70;;;;;;21004066;28;20203;-69
2022/07/10 07:43:25;;;;;;;1.47;0.80;;;17.90;67.20;;;;;;21003261;28;20242;-70
2022/07/10 07:53:27;;;;;;;7.23;5.20;;;18.10;65.20;;;;;;21012532;28;20670;-70
2022/07/10 08:03:29;;;;;;;5.13;1.87;;;18.10;64.30;;;;;;21000015;28;20238;-69
2022/07/10 08:13:51;;;;;;;6.13;1.93;;;17.80;63.00;;;;;;21000800;28;20287;-69
2022/07/10 08:23:53;;;;;;;3.10;1.40;;;17.90;61.50;;;;;;20997969;28;20237;-71
2022/07/10 08:33:55;;;;;;;1.77;1.00;;;17.90;61.40;;;;;;20979646;28;20212;-71
2022/07/10 08:43:57;;;;;;;3.70;1.30;;;18.00;61.10;;;;;;20996313;28;20240;-71
2022/07/10 08:54:00;;;;;;;3.33;1.00;;;18.50;60.40;;;;;;20994183;28;20434;-72
2022/07/10 09:04:02;;;;;;;3.00;1.00;;;18.60;57.80;;;;;;20994457;28;20249;-71
2022/07/10 09:14:08;;;;;;;1.97;0.90;;;18.50;56.50;;;;;;20977460;28;20210;-70
2022/07/10 09:24:10;;;;;;;2.13;1.03;;;18.70;56.00;;;;;;20995133;28;20234;-70
2022/07/10 09:34:11;;;;;;;1.40;0.90;;;18.70;56.00;;;;;;21000685;28;20209;-71
2022/07/10 09:44:15;;;;;;;2.27;1.10;;;18.80;55.90;;;;;;21010250;28;20595;-72
2022/07/10 09:54:18;;;;;;;5.67;1.20;;;18.80;56.00;;;;;;20992309;28;20215;-70
2022/07/10 10:04:24;;;;;;;2.70;1.43;;;18.80;56.00;;;;;;21008675;28;20231;-69
2022/07/10 10:14:28;;;;;;;1.83;0.90;;;18.90;56.10;;;;;;21007991;28;20219;-70
2022/07/10 10:24:32;;;;;;;2.67;1.13;;;19.40;56.00;;;;;;21007594;28;20233;-72
2022/07/10 10:34:57;;;;;;;3.37;1.30;;;19.50;55.70;;;;;;21041935;28;20209;-71
2022/07/10 10:45:34;;;;;;;3.13;1.00;;;19.60;55.40;;;;;;21006509;28;20720;-70
2022/07/10 10:55:37;;;;;;;5.60;0.90;;;19.60;55.30;;;;;;21002914;28;20227;-70
2022/07/10 11:05:41;;;;;;;2.23;0.83;;;19.80;54.90;;;;;;21004258;28;20234;-70
2022/07/10 11:15:48;;;;;;;3.20;1.40;;;19.90;54.40;;;;;;21003686;28;20577;-71
2022/07/10 11:26:12;;;;;;;1.27;1.03;;;19.90;54.60;;;;;;21003183;28;20296;-69
2022/07/10 11:36:17;;;;;;;3.93;1.30;;;20.00;55.10;;;;;;21001433;28;20237;-71
2022/07/10 11:46:21;;;;;;;2.87;1.07;;;20.00;55.40;;;;;;21000539;28;20234;-72
2022/07/10 11:56:24;;;;;;;4.67;1.93;;;20.20;54.90;;;;;;20999506;28;20655;-69
2022/07/10 12:06:26;;;;;;;6.80;2.73;;;20.30;55.10;;;;;;20998909;28;20264;-70
2022/07/10 12:16:35;;;;;;;5.07;3.70;;;20.50;54.90;;;;;;20997860;28;20236;-69
2022/07/10 12:26:39;;;;;;;5.07;3.23;;;20.40;55.20;;;;;;20997288;28;20219;-70
2022/07/10 12:36:51;;;;;;;3.03;1.73;;;20.40;55.20;;;;;;20996751;28;20573;-70
2022/07/10 12:47:11;;;;;;;3.47;1.80;;;20.60;55.00;;;;;;20996005;28;20243;-68
2022/07/10 12:57:14;;;;;;;5.13;2.07;;;20.60;55.30;;;;;;20992263;28;20238;-70
2022/07/10 13:07:17;;;;;;;3.70;2.03;;;20.70;54.60;;;;;;20992899;28;20209;-70
2022/07/10 13:17:18;;;;;;;3.47;1.93;;;20.80;54.10;;;;;;20994238;28;20720;-69
2022/07/10 13:27:20;;;;;;;7.90;1.37;;;20.70;54.40;;;;;;20994270;28;20328;-69
2022/07/10 13:37:22;;;;;;;1.73;1.27;;;20.50;54.60;;;;;;20994864;28;20273;-69
2022/07/10 13:47:25;;;;;;;3.63;1.30;;;20.50;54.50;;;;;;20993766;28;20238;-69
2022/07/10 13:57:27;;;;;;;2.67;1.47;;;20.70;54.20;;;;;;20993658;28;20235;-67
2022/07/10 14:07:29;;;;;;;6.83;1.27;;;21.00;54.80;;;;;;20994364;28;20202;-72
2022/07/10 14:17:34;;;;;;;5.80;1.20;;;21.00;54.00;;;;;;21041046;28;20338;-68
2022/07/10 14:27:36;;;;;;;3.87;1.30;;;21.00;54.20;;;;;;21088437;28;20206;-67
2022/07/10 14:37:38;;;;;;;5.17;1.50;;;21.30;54.30;;;;;;21090565;28;20240;-70
2022/07/10 14:47:40;;;;;;;3.17;1.63;;;21.80;53.70;;;;;;21092496;28;20565;-67
2022/07/10 14:57:41;;;;;;;4.30;2.10;;;21.80;53.20;;;;;;21086050;28;20234;-69
2022/07/10 15:07:43;;;;;;;2.80;1.10;;;21.70;53.20;;;;;;21088357;28;20206;-65
2022/07/10 15:17:45;;;;;;;4.13;1.10;;;21.50;52.50;;;;;;21087450;28;20700;-69
2022/07/10 15:27:47;;;;;;;2.67;1.00;;;21.30;53.20;;;;;;21111026;28;20217;-69
2022/07/10 15:37:48;;;;;;;2.73;1.20;;;21.10;53.70;;;;;;21095514;28;20234;-74
2022/07/10 15:47:50;;;;;;;2.10;1.20;;;21.20;53.90;;;;;;21084644;28;20245;-66
2022/07/10 15:57:52;;;;;;;2.20;1.20;;;21.20;54.00;;;;;;21083871;28;20233;-69
2022/07/10 16:07:54;;;;;;;2.40;1.40;;;21.20;53.80;;;;;;21083113;28;20207;-68
2022/07/10 16:17:55;;;;;;;3.83;1.10;;;21.90;53.50;;;;;;21081877;28;20286;-63
2022/07/10 16:27:57;;;;;;;2.60;1.20;;;21.50;53.80;;;;;;21081618;28;20279;-65
2022/07/10 16:37:59;;;;;;;3.27;1.33;;;21.40;54.10;;;;;;21080995;28;20723;-74
2022/07/10 16:48:01;;;;;;;5.77;1.53;;;21.40;54.10;;;;;;21077314;28;20237;-79
2022/07/10 16:58:02;;;;;;;2.80;1.20;;;21.40;54.40;;;;;;20992589;28;20294;-69
2022/07/10 17:08:07;;;;;;;3.47;1.57;;;21.20;54.60;;;;;;20995491;28;20685;-73
2022/07/10 17:18:09;;;;;;;2.80;1.30;;;21.00;55.20;;;;;;20997452;28;20278;-72
2022/07/10 17:28:12;;;;;;;3.17;1.37;;;21.00;55.90;;;;;;21005825;28;20612;-71
2022/07/10 17:38:15;;;;;;;2.37;1.43;;;20.90;56.40;;;;;;21016922;28;20656;-74
2022/07/10 17:48:16;;;;;;;2.43;1.10;;;20.60;56.60;;;;;;21013856;28;20639;-77
2022/07/10 17:58:18;;;;;;;2.40;1.20;;;20.50;57.00;;;;;;21024869;28;20233;-71
2022/07/10 18:08:21;;;;;;;4.23;1.20;;;20.50;57.50;;;;;;21020397;28;20217;-66
2022/07/10 18:18:23;;;;;;;3.17;1.07;;;20.50;57.80;;;;;;21034134;28;20241;-66
2022/07/10 18:28:26;;;;;;;2.63;1.30;;;20.50;57.70;;;;;;21061035;28;20205;-68
2022/07/10 18:38:28;;;;;;;5.87;1.33;;;20.50;58.40;;;;;;21020741;28;20230;-72
2022/07/10 18:48:30;;;;;;;5.17;1.23;;;20.50;58.30;;;;;;21062488;28;20240;-75
2022/07/10 18:58:32;;;;;;;2.40;1.20;;;20.40;58.50;;;;;;21094004;28;20240;-73
2022/07/10 19:08:33;;;;;;;1.70;1.30;;;20.20;58.90;;;;;;21082154;28;20212;-73
2022/07/10 19:18:35;;;;;;;5.03;1.83;;;20.00;59.30;;;;;;21085683;28;20733;-70
2022/07/10 19:28:37;;;;;;;3.07;1.50;;;20.00;60.00;;;;;;21066550;28;20214;-72
2022/07/10 19:38:39;;;;;;;2.57;1.10;;;19.90;60.80;;;;;;21087596;28;20229;-71
2022/07/10 19:48:47;;;;;;;2.83;1.30;;;19.90;61.30;;;;;;21082534;28;20236;-73
2022/07/10 19:58:49;;;;;;;2.60;1.20;;;19.90;62.00;;;;;;21081824;28;20236;-73
2022/07/10 20:08:50;;;;;;;2.30;1.17;;;19.70;63.60;;;;;;21087702;28;20270;-73
2022/07/10 20:18:52;;;;;;;2.17;0.90;;;19.60;64.90;;;;;;21086058;28;20741;-72
2022/07/10 20:28:54;;;;;;;0.97;0.80;;;19.60;65.60;;;;;;21080047;28;20568;-71
2022/07/10 20:38:56;;;;;;;1.37;1.27;;;19.70;66.20;;;;;;21079022;28;20240;-72
2022/07/10 20:48:59;;;;;;;2.33;0.90;;;19.70;66.50;;;;;;21078554;28;20242;-72
2022/07/10 20:59:00;;;;;;;1.13;1.00;;;19.70;67.20;;;;;;21072366;28;20691;-73
2022/07/10 21:09:03;;;;;;;1.67;0.90;;;19.60;67.80;;;;;;21076182;28;20579;-71
2022/07/10 21:19:05;;;;;;;1.20;0.87;;;19.50;68.60;;;;;;21076251;28;20242;-72
2022/07/10 21:29:06;;;;;;;0.70;0.70;;;19.30;69.60;;;;;;21082256;28;20212;-71
2022/07/10 21:39:09;;;;;;;1.17;0.80;;;19.30;70.50;;;;;;21096140;28;20237;-69
2022/07/10 21:49:11;;;;;;;0.70;0.70;;;19.30;70.80;;;;;;21094800;28;20305;-69
2022/07/10 21:59:12;;;;;;;0.67;0.67;;;19.20;71.50;;;;;;21093957;28;20655;-70
2022/07/10 22:09:14;;;;;;;0.80;0.80;;;19.10;72.30;;;;;;21093404;28;20651;-69
2022/07/10 22:19:17;;;;;;;0.97;0.83;;;19.10;73.10;;;;;;21057333;28;20690;-70
2022/07/10 22:29:18;;;;;;;1.27;0.87;;;19.00;73.80;;;;;;21004747;28;20205;-71
2022/07/10 22:39:21;;;;;;;1.63;1.00;;;19.00;74.30;;;;;;21007186;28;20233;-73
2022/07/10 22:49:23;;;;;;;1.67;1.23;;;19.00;75.00;;;;;;21006402;28;20237;-71
2022/07/10 22:59:24;;;;;;;3.07;1.33;;;18.80;76.70;;;;;;21005575;28;20234;-71
2022/07/10 23:09:26;;;;;;;1.40;1.17;;;18.60;77.90;;;;;;21011655;28;20214;-72
2022/07/10 23:19:28;;;;;;;1.30;1.20;;;18.50;78.90;;;;;;21003805;28;20239;-72
2022/07/10 23:29:29;;;;;;;1.60;1.30;;;18.50;79.60;;;;;;21003287;28;20680;-70
2022/07/10 23:39:31;;;;;;;1.50;1.40;;;18.40;80.40;;;;;;21003703;28;20246;-72
2022/07/10 23:59:56;;;;;;;1.40;1.30;;;18.40;82.00;;;;;;21000477;28;20702;-70
